createdAt,value
2023-01-03T00:02:12.729Z,100.00
2023-01-03T00:04:43.292Z,100.00
2023-01-03T00:07:12.634Z,100.00
2023-01-03T00:09:39.574Z,100.00
2023-01-03T00:12:30.190Z,100.00
2023-01-03T00:14:58.793Z,100.00
2023-01-03T00:17:26.035Z,100.00
2023-01-03T00:19:52.773Z,100.00
2023-01-03T00:22:19.922Z,100.00
2023-01-03T00:24:48.821Z,100.00
2023-01-03T00:27:16.654Z,100.00
2023-01-03T00:29:43.618Z,100.00
2023-01-03T00:32:10.977Z,100.00
2023-01-03T00:34:37.827Z,100.00
2023-01-03T00:37:04.653Z,100.00
2023-01-03T00:39:31.434Z,100.00
2023-01-03T00:41:58.266Z,100.00
2023-01-03T00:44:25.065Z,100.00
2023-01-03T00:46:51.930Z,100.00
2023-01-03T00:49:18.713Z,100.00
2023-01-03T00:51:45.564Z,100.00
2023-01-03T00:54:14.243Z,100.00
2023-01-03T00:56:43.831Z,100.00
2023-01-03T00:59:12.144Z,100.00
2023-01-03T01:01:46.801Z,100.00
2023-01-03T01:04:21.845Z,100.00
2023-01-03T01:06:57.116Z,100.00
2023-01-03T01:09:26.943Z,100.00
2023-01-03T01:11:54.906Z,100.00
2023-01-03T01:14:24.001Z,100.00
2023-01-03T01:16:54.804Z,100.00
2023-01-03T01:19:25.139Z,100.00
2023-01-03T01:21:52.209Z,100.00
2023-01-03T01:24:19.350Z,100.00
2023-01-03T01:26:46.847Z,100.00
2023-01-03T01:29:15.030Z,100.00
2023-01-03T01:31:42.692Z,100.00
2023-01-03T01:34:10.162Z,100.00
2023-01-03T01:36:41.944Z,100.00
2023-01-03T01:39:35.413Z,100.00
2023-01-03T01:42:28.675Z,100.00
2023-01-03T01:45:01.221Z,100.00
2023-01-03T01:47:27.864Z,100.00
2023-01-03T01:50:05.685Z,100.00
2023-01-03T01:52:35.474Z,100.00
2023-01-03T01:55:04.660Z,100.00
2023-01-03T01:57:31.665Z,100.00
2023-01-03T02:00:00.399Z,100.00
2023-01-03T02:02:28.060Z,100.00
2023-01-03T02:04:56.851Z,100.00
2023-01-03T02:07:24.178Z,100.00
2023-01-03T02:09:56.405Z,100.00
2023-01-03T02:12:44.538Z,100.00
2023-01-03T02:15:23.449Z,100.00
2023-01-03T02:18:08.152Z,100.00
2023-01-03T02:21:02.633Z,100.00
2023-01-03T02:23:44.309Z,100.00
2023-01-03T02:26:22.759Z,100.00
2023-01-03T02:28:49.477Z,100.00
2023-01-03T02:31:44.194Z,100.00
2023-01-03T02:34:27.485Z,100.00
2023-01-03T02:37:07.938Z,100.00
2023-01-03T02:39:40.966Z,100.00
2023-01-03T02:42:32.623Z,100.00
2023-01-03T02:45:14.066Z,100.00
2023-01-03T02:47:50.819Z,100.00
2023-01-03T02:50:20.256Z,100.00
2023-01-03T02:52:49.457Z,100.00
2023-01-03T02:55:29.330Z,100.00
2023-01-03T02:58:04.945Z,100.00
2023-01-03T03:00:34.366Z,100.00
2023-01-03T03:03:09.758Z,100.00
2023-01-03T03:06:01.376Z,100.00
2023-01-03T03:08:28.859Z,100.00
2023-01-03T03:11:14.804Z,100.00
2023-01-03T03:13:48.892Z,100.00
2023-01-03T03:16:43.125Z,100.00
2023-01-03T03:19:54.501Z,100.00
2023-01-03T03:22:59.374Z,100.00
2023-01-03T03:25:27.835Z,100.00
2023-01-03T03:28:18.292Z,100.00
2023-01-03T03:30:47.667Z,100.00
2023-01-03T03:33:16.519Z,100.00
2023-01-03T03:35:58.973Z,100.00
2023-01-03T03:38:33.548Z,100.00
2023-01-03T03:41:48.114Z,100.00
2023-01-03T03:44:36.528Z,100.00
2023-01-03T03:47:34.710Z,100.00
2023-01-03T03:50:20.032Z,100.00
2023-01-03T03:52:52.130Z,100.00
2023-01-03T03:55:31.295Z,100.00
2023-01-03T03:58:06.867Z,100.00
2023-01-03T04:00:38.468Z,100.00
2023-01-03T04:03:08.297Z,100.00
2023-01-03T04:05:39.545Z,100.00
2023-01-03T04:08:06.794Z,100.00
2023-01-03T04:10:37.623Z,100.00
2023-01-03T04:13:04.919Z,100.00
2023-01-03T04:15:31.721Z,100.00
2023-01-03T04:17:58.451Z,100.00
2023-01-03T04:20:25.404Z,100.00
2023-01-03T04:22:52.132Z,100.00
2023-01-03T04:25:19.040Z,100.00
2023-01-03T04:27:45.781Z,100.00
2023-01-03T04:30:13.322Z,100.00
2023-01-03T04:32:40.439Z,100.00
2023-01-03T04:35:07.728Z,100.00
2023-01-03T04:37:34.542Z,100.00
2023-01-03T04:40:01.268Z,100.00
2023-01-03T04:42:46.431Z,100.00
2023-01-03T04:45:13.159Z,100.00
2023-01-03T04:47:39.928Z,100.00
2023-01-03T04:50:06.892Z,100.00
2023-01-03T04:52:33.666Z,100.00
2023-01-03T04:55:00.475Z,100.00
2023-01-03T04:57:27.297Z,100.00
2023-01-03T04:59:54.062Z,100.00
2023-01-03T05:02:20.924Z,100.00
2023-01-03T05:04:47.860Z,100.00
2023-01-03T05:07:14.545Z,100.00
2023-01-03T05:09:41.300Z,100.00
2023-01-03T05:12:08.106Z,100.00
2023-01-03T05:14:35.849Z,100.00
2023-01-03T05:17:02.630Z,100.00
2023-01-03T05:19:29.471Z,100.00
2023-01-03T05:22:14.799Z,100.00
2023-01-03T05:25:00.053Z,100.00
2023-01-03T05:27:27.368Z,100.00
2023-01-03T05:29:55.362Z,100.00
2023-01-03T05:32:23.951Z,100.00
2023-01-03T05:34:50.768Z,100.00
2023-01-03T05:37:17.523Z,100.00
2023-01-03T05:39:44.204Z,100.00
2023-01-03T05:42:10.927Z,100.00
2023-01-03T05:44:37.627Z,100.00
2023-01-03T05:47:05.627Z,100.00
2023-01-03T05:49:33.480Z,100.00
2023-01-03T05:52:00.318Z,100.00
2023-01-03T05:54:27.215Z,100.00
2023-01-03T05:56:54.077Z,100.00
2023-01-03T05:59:21.260Z,100.00
2023-01-03T06:01:48.779Z,100.00
2023-01-03T06:04:15.771Z,100.00
2023-01-03T06:06:42.575Z,100.00
2023-01-03T06:09:09.383Z,100.00
2023-01-03T06:11:36.204Z,100.00
2023-01-03T06:14:03.433Z,100.00
2023-01-03T06:16:48.975Z,100.00
2023-01-03T06:19:15.846Z,100.00
2023-01-03T06:21:42.654Z,100.00
2023-01-03T06:24:10.001Z,100.00
2023-01-03T06:26:37.085Z,100.00
2023-01-03T06:29:05.086Z,100.00
2023-01-03T06:31:32.302Z,100.00
2023-01-03T06:33:59.194Z,100.00
2023-01-03T06:36:26.185Z,100.00
2023-01-03T06:38:53.824Z,100.00
2023-01-03T06:41:20.672Z,100.00
2023-01-03T06:43:47.370Z,100.00
2023-01-03T06:46:32.957Z,100.00
2023-01-03T06:49:18.382Z,100.00
2023-01-03T06:52:07.141Z,100.00
2023-01-03T06:54:36.158Z,100.00
2023-01-03T06:57:04.198Z,100.00
2023-01-03T06:59:30.973Z,100.00
2023-01-03T07:01:58.095Z,100.00
2023-01-03T07:04:27.353Z,100.00
2023-01-03T07:06:54.282Z,100.00
2023-01-03T07:09:21.407Z,100.00
2023-01-03T07:11:48.302Z,100.00
2023-01-03T07:14:15.234Z,100.00
2023-01-03T07:16:44.429Z,100.00
2023-01-03T07:19:13.985Z,100.00
2023-01-03T07:21:41.488Z,100.00
2023-01-03T07:24:11.055Z,100.00
2023-01-03T07:26:38.474Z,100.00
2023-01-03T07:29:08.114Z,100.00
2023-01-03T07:31:38.535Z,100.00
2023-01-03T07:34:05.512Z,100.00
2023-01-03T07:36:32.282Z,100.00
2023-01-03T07:38:59.011Z,100.00
2023-01-03T07:41:45.735Z,100.00
2023-01-03T07:44:12.521Z,100.00
2023-01-03T07:46:39.364Z,100.00
2023-01-03T07:49:11.409Z,100.00
2023-01-03T07:51:39.412Z,100.00
2023-01-03T07:54:07.528Z,100.00
2023-01-03T07:56:34.853Z,100.00
2023-01-03T07:59:02.109Z,100.00
2023-01-03T08:01:30.522Z,100.00
2023-01-03T08:03:57.715Z,100.00
2023-01-03T08:06:25.514Z,100.00
2023-01-03T08:09:12.150Z,100.00
2023-01-03T08:11:57.942Z,100.00
2023-01-03T08:14:26.529Z,100.00
2023-01-03T08:16:54.225Z,100.00
2023-01-03T08:19:20.912Z,100.00
2023-01-03T08:21:47.595Z,100.00
2023-01-03T08:24:14.433Z,100.00
2023-01-03T08:26:41.514Z,100.00
2023-01-03T08:29:08.261Z,100.00
2023-01-03T08:31:40.644Z,100.00
2023-01-03T08:34:16.957Z,100.00
2023-01-03T08:36:55.295Z,100.00
2023-01-03T08:39:26.658Z,100.00
2023-01-03T08:42:05.633Z,100.00
2023-01-03T08:44:32.952Z,100.00
2023-01-03T08:47:02.438Z,100.00
2023-01-03T08:49:30.283Z,100.00
2023-01-03T08:51:57.088Z,100.00
2023-01-03T08:54:23.842Z,100.00
2023-01-03T08:56:50.779Z,100.00
2023-01-03T08:59:17.596Z,100.00
2023-01-03T09:01:44.482Z,100.00
2023-01-03T09:04:11.387Z,100.00
2023-01-03T09:06:38.253Z,100.00
2023-01-03T09:09:07.906Z,100.00
2023-01-03T09:11:34.859Z,100.00
2023-01-03T09:14:01.717Z,100.00
2023-01-03T09:16:28.640Z,100.00
2023-01-03T09:18:55.464Z,100.00
2023-01-03T09:21:22.321Z,100.00
2023-01-03T09:23:49.080Z,100.00
2023-01-03T09:26:15.879Z,100.00
2023-01-03T09:28:42.669Z,100.00
2023-01-03T09:31:09.511Z,100.00
2023-01-03T09:33:36.328Z,100.00
2023-01-03T09:36:03.173Z,100.00
2023-01-03T09:38:29.931Z,100.00
2023-01-03T09:41:06.417Z,100.00
2023-01-03T09:43:41.215Z,100.00
2023-01-03T09:46:24.991Z,100.00
2023-01-03T09:48:53.639Z,100.00
2023-01-03T09:51:44.450Z,100.00
2023-01-03T09:54:37.479Z,100.00
2023-01-03T09:57:33.333Z,100.00
2023-01-03T10:00:19.212Z,100.00
2023-01-03T10:03:51.077Z,100.00
2023-01-03T10:06:30.266Z,100.00
2023-01-03T10:09:20.028Z,100.00
2023-01-03T10:12:07.575Z,100.00
2023-01-03T10:14:54.992Z,100.00
2023-01-03T10:17:26.434Z,100.00
2023-01-03T10:20:38.265Z,100.00
2023-01-03T10:23:07.903Z,100.00
2023-01-03T10:25:39.801Z,100.00
2023-01-03T10:28:19.058Z,100.00
2023-01-03T10:31:00.769Z,100.00
2023-01-03T10:33:40.791Z,100.00
2023-01-03T10:36:09.177Z,100.00
2023-01-03T10:38:43.569Z,100.00
2023-01-03T10:41:39.485Z,100.00
2023-01-03T10:44:06.343Z,100.00
2023-01-03T10:46:33.210Z,100.00
2023-01-03T10:49:33.484Z,100.00
2023-01-03T10:52:01.126Z,100.00
2023-01-03T10:54:43.168Z,100.00
2023-01-03T10:57:43.689Z,100.00
2023-01-03T11:00:33.839Z,100.00
2023-01-03T11:03:10.297Z,100.00
2023-01-03T11:05:38.461Z,100.00
2023-01-03T11:08:13.923Z,100.00
2023-01-03T11:10:58.864Z,100.00
2023-01-03T11:13:33.485Z,100.00
2023-01-03T11:16:03.431Z,100.00
2023-01-03T11:18:31.437Z,100.00
2023-01-03T11:21:13.100Z,100.00
2023-01-03T11:23:45.590Z,100.00
2023-01-03T11:26:59.996Z,100.00
2023-01-03T11:29:45.252Z,100.00
2023-01-03T11:32:33.756Z,100.00
2023-01-03T11:35:29.597Z,100.00
2023-01-03T11:38:27.286Z,100.00
2023-01-03T11:40:59.686Z,100.00
2023-01-03T11:43:44.589Z,100.00
2023-01-03T11:46:30.021Z,100.00
2023-01-03T11:49:08.998Z,100.00
2023-01-03T11:51:48.477Z,100.00
2023-01-03T11:54:29.618Z,100.00
2023-01-03T11:57:03.243Z,100.00
2023-01-03T11:59:46.992Z,100.00
2023-01-03T12:02:51.935Z,100.00
2023-01-03T12:05:33.798Z,100.00
2023-01-03T12:08:12.666Z,100.00
2023-01-03T12:10:39.366Z,100.00
2023-01-03T12:13:29.883Z,100.00
2023-01-03T12:16:25.302Z,100.00
2023-01-03T12:19:12.057Z,100.00
2023-01-03T12:21:43.674Z,64.25
2023-01-03T12:24:32.193Z,63.18
2023-01-03T12:27:14.711Z,60.26
2023-01-03T12:30:09.473Z,57.84
2023-01-03T12:32:52.120Z,56.18
2023-01-03T12:35:41.900Z,55.12
2023-01-03T12:38:11.488Z,53.76
2023-01-03T12:40:51.786Z,52.36
2023-01-03T12:43:18.467Z,51.72
2023-01-03T12:46:00.530Z,52.24
2023-01-03T12:49:05.519Z,48.29
2023-01-03T12:51:32.728Z,48.31
2023-01-03T12:54:11.681Z,47.25
2023-01-03T12:57:19.907Z,46.74
2023-01-03T13:00:01.771Z,47.21
2023-01-03T13:02:48.879Z,46.67
2023-01-03T13:05:18.993Z,46.79
2023-01-03T13:07:54.288Z,46.16
2023-01-03T13:10:27.307Z,47.78
2023-01-03T13:12:54.587Z,47.08
2023-01-03T13:15:42.612Z,47.00
2023-01-03T13:18:18.516Z,47.22
2023-01-03T13:20:50.025Z,45.17
2023-01-03T13:23:42.049Z,44.61
2023-01-03T13:26:21.201Z,44.76
2023-01-03T13:28:48.375Z,44.08
2023-01-03T13:31:15.674Z,42.71
2023-01-03T13:33:56.273Z,42.59
2023-01-03T13:36:24.703Z,42.46
2023-01-03T13:38:51.753Z,42.02
2023-01-03T13:41:39.461Z,40.79
2023-01-03T13:44:23.195Z,39.79
2023-01-03T13:46:52.170Z,39.64
2023-01-03T13:49:28.217Z,38.72
2023-01-03T13:51:56.967Z,37.96
2023-01-03T13:54:35.370Z,37.55
2023-01-03T13:57:05.409Z,37.42
2023-01-03T13:59:42.188Z,37.43
2023-01-03T14:03:19.793Z,36.87
2023-01-03T14:06:08.447Z,36.17
2023-01-03T14:08:51.392Z,35.71
2023-01-03T14:11:52.494Z,35.12
2023-01-03T14:14:24.290Z,35.03
2023-01-03T14:16:57.815Z,35.03
2023-01-03T14:19:29.084Z,35.32
2023-01-03T14:22:28.202Z,36.24
2023-01-03T14:24:57.747Z,37.20
2023-01-03T14:27:32.680Z,38.46
2023-01-03T14:30:00.647Z,39.78
2023-01-03T14:32:34.301Z,40.42
2023-01-03T14:35:02.710Z,41.47
2023-01-03T14:37:30.338Z,42.22
2023-01-03T14:40:01.162Z,43.18
2023-01-03T14:42:28.642Z,44.02
2023-01-03T14:45:04.189Z,44.99
2023-01-03T14:47:41.967Z,46.16
2023-01-03T14:50:30.540Z,47.22
2023-01-03T14:53:02.882Z,48.17
2023-01-03T14:55:32.895Z,49.28
2023-01-03T14:58:04.957Z,49.53
2023-01-03T15:00:36.188Z,50.86
2023-01-03T15:03:04.137Z,51.78
2023-01-03T15:05:39.474Z,53.03
2023-01-03T15:08:09.073Z,54.17
2023-01-03T15:10:48.471Z,54.90
2023-01-03T15:13:30.372Z,56.47
2023-01-03T15:16:00.486Z,57.90
2023-01-03T15:18:31.455Z,58.59
2023-01-03T15:21:00.513Z,59.43
2023-01-03T15:23:44.408Z,60.46
2023-01-03T15:26:27.089Z,60.88
2023-01-03T15:29:15.938Z,62.30
2023-01-03T15:31:58.383Z,63.99
2023-01-03T15:34:34.328Z,65.15
2023-01-03T15:37:05.050Z,66.86
2023-01-03T15:39:45.191Z,72.01
2023-01-03T15:42:44.482Z,74.47
2023-01-03T15:45:19.731Z,75.41
2023-01-03T15:47:49.026Z,77.09
2023-01-03T15:50:21.264Z,78.92
2023-01-03T15:52:49.267Z,79.06
2023-01-03T15:55:17.014Z,80.16
2023-01-03T15:57:51.410Z,81.63
2023-01-03T16:00:22.419Z,81.05
2023-01-03T16:02:49.927Z,83.02
2023-01-03T16:05:22.200Z,83.45
2023-01-03T16:07:50.565Z,84.75
2023-01-03T16:10:17.493Z,86.57
2023-01-03T16:12:44.509Z,87.36
2023-01-03T16:15:20.508Z,89.22
2023-01-03T16:17:48.127Z,94.42
2023-01-03T16:20:17.850Z,96.16
2023-01-03T16:23:02.304Z,100.00
2023-01-03T16:25:29.335Z,100.00
2023-01-03T16:27:56.345Z,100.00
2023-01-03T16:30:24.437Z,100.00
2023-01-03T16:32:51.807Z,100.00
2023-01-03T16:35:19.486Z,100.00
2023-01-03T16:37:47.272Z,100.00
2023-01-03T16:40:19.730Z,100.00
2023-01-03T16:42:47.330Z,100.00
2023-01-03T16:45:15.193Z,100.00
2023-01-03T16:47:43.273Z,100.00
2023-01-03T16:50:18.520Z,100.00
2023-01-03T16:52:48.247Z,100.00
2023-01-03T16:55:16.760Z,100.00
2023-01-03T16:57:46.165Z,100.00
2023-01-03T17:00:21.125Z,100.00
2023-01-03T17:02:48.101Z,100.00
2023-01-03T17:05:15.241Z,100.00
2023-01-03T17:07:44.280Z,100.00
2023-01-03T17:10:36.032Z,100.00
2023-01-03T17:13:10.456Z,100.00
2023-01-03T17:15:41.002Z,100.00
2023-01-03T17:18:18.690Z,100.00
2023-01-03T17:20:45.559Z,100.00
2023-01-03T17:23:12.456Z,100.00
2023-01-03T17:25:40.347Z,100.00
2023-01-03T17:28:10.370Z,100.00
2023-01-03T17:30:37.891Z,100.00
2023-01-03T17:33:04.701Z,100.00
2023-01-03T17:35:31.762Z,100.00
2023-01-03T17:38:24.716Z,100.00
2023-01-03T17:40:47.910Z,100.00
2023-01-03T17:43:24.202Z,100.00
2023-01-03T17:46:14.901Z,100.00
2023-01-03T17:49:03.414Z,100.00
2023-01-03T17:51:30.177Z,100.00
2023-01-03T17:53:57.820Z,100.00
2023-01-03T17:56:24.825Z,100.00
2023-01-03T17:58:56.268Z,100.00
2023-01-03T18:01:24.030Z,100.00
2023-01-03T18:03:51.146Z,100.00
2023-01-03T18:06:21.181Z,100.00
2023-01-03T18:08:48.965Z,100.00
2023-01-03T18:11:22.284Z,100.00
2023-01-03T18:13:49.909Z,100.00
2023-01-03T18:16:22.222Z,100.00
2023-01-03T18:18:49.584Z,100.00
2023-01-03T18:21:24.911Z,100.00
2023-01-03T18:24:02.029Z,100.00
2023-01-03T18:26:41.093Z,100.00
2023-01-03T18:29:13.599Z,100.00
2023-01-03T18:31:40.527Z,100.00
2023-01-03T18:34:07.686Z,100.00
2023-01-03T18:36:47.792Z,100.00
2023-01-03T18:39:17.629Z,100.00
2023-01-03T18:41:45.958Z,100.00
2023-01-03T18:44:20.622Z,100.00
2023-01-03T18:46:47.814Z,100.00
2023-01-03T18:49:14.847Z,100.00
2023-01-03T18:51:41.836Z,100.00
2023-01-03T18:54:10.812Z,100.00
2023-01-03T18:56:39.793Z,100.00
2023-01-03T18:59:13.668Z,100.00
2023-01-03T19:01:40.488Z,100.00
2023-01-03T19:04:07.351Z,100.00
2023-01-03T19:06:34.993Z,100.00
2023-01-03T19:09:05.134Z,100.00
2023-01-03T19:11:37.990Z,100.00
2023-01-03T19:14:04.749Z,100.00
2023-01-03T19:16:33.917Z,100.00
2023-01-03T19:19:01.446Z,100.00
2023-01-03T19:21:45.944Z,100.00
2023-01-03T19:24:39.235Z,100.00
2023-01-03T19:27:17.823Z,100.00
2023-01-03T19:29:44.934Z,100.00
2023-01-03T19:32:18.123Z,100.00
2023-01-03T19:34:45.024Z,100.00
2023-01-03T19:37:12.486Z,100.00
2023-01-03T19:39:39.274Z,100.00
2023-01-03T19:42:30.716Z,100.00
2023-01-03T19:45:02.761Z,100.00
2023-01-03T19:47:29.566Z,100.00
2023-01-03T19:49:58.104Z,100.00
2023-01-03T19:52:24.921Z,100.00
2023-01-03T19:54:51.709Z,100.00
2023-01-03T19:57:24.171Z,100.00
2023-01-03T19:59:58.346Z,100.00
2023-01-03T20:02:28.126Z,100.00
2023-01-03T20:04:55.033Z,100.00
2023-01-03T20:07:21.820Z,100.00
2023-01-03T20:09:48.653Z,100.00
2023-01-03T20:12:21.769Z,100.00
2023-01-03T20:14:52.157Z,100.00
2023-01-03T20:17:21.541Z,100.00
2023-01-03T20:19:48.681Z,100.00
2023-01-03T20:22:37.627Z,100.00
2023-01-03T20:25:03.524Z,100.00
2023-01-03T20:27:30.319Z,100.00
2023-01-03T20:29:57.067Z,100.00
2023-01-03T20:32:24.851Z,100.00
2023-01-03T20:34:51.605Z,100.00
2023-01-03T20:37:20.386Z,100.00
2023-01-03T20:39:47.385Z,100.00
2023-01-03T20:42:24.978Z,100.00
2023-01-03T20:44:51.844Z,100.00
2023-01-03T20:47:23.171Z,100.00
2023-01-03T20:49:50.963Z,100.00
2023-01-03T20:52:19.182Z,100.00
2023-01-03T20:54:46.176Z,100.00
2023-01-03T20:57:17.660Z,100.00
2023-01-03T20:59:44.460Z,100.00
2023-01-03T21:02:11.361Z,100.00
2023-01-03T21:04:39.541Z,100.00
2023-01-03T21:07:11.671Z,100.00
2023-01-03T21:09:38.753Z,100.00
2023-01-03T21:12:05.631Z,100.00
2023-01-03T21:14:32.375Z,100.00
2023-01-03T21:16:59.140Z,100.00
2023-01-03T21:19:26.091Z,100.00
2023-01-03T21:21:55.623Z,100.00
2023-01-03T21:24:24.082Z,100.00
2023-01-03T21:26:51.002Z,100.00
2023-01-03T21:29:17.786Z,100.00
2023-01-03T21:31:44.562Z,100.00
2023-01-03T21:34:20.203Z,100.00
2023-01-03T21:36:47.144Z,100.00
2023-01-03T21:39:14.252Z,100.00
2023-01-03T21:41:59.434Z,100.00
2023-01-03T21:44:26.415Z,100.00
2023-01-03T21:46:53.179Z,100.00
2023-01-03T21:49:20.590Z,100.00
2023-01-03T21:51:47.315Z,100.00
2023-01-03T21:54:14.024Z,100.00
2023-01-03T21:56:45.789Z,100.00
2023-01-03T21:59:14.789Z,100.00
2023-01-03T22:02:02.540Z,100.00
2023-01-03T22:04:29.739Z,100.00
2023-01-03T22:07:00.651Z,100.00
2023-01-03T22:09:47.759Z,100.00
2023-01-03T22:12:16.206Z,100.00
2023-01-03T22:14:43.818Z,100.00
2023-01-03T22:17:10.542Z,100.00
2023-01-03T22:19:37.299Z,100.00
2023-01-03T22:22:04.892Z,100.00
2023-01-03T22:24:31.837Z,100.00
2023-01-03T22:26:58.676Z,100.00
2023-01-03T22:29:25.446Z,100.00
2023-01-03T22:31:52.321Z,100.00
2023-01-03T22:34:19.134Z,100.00
2023-01-03T22:36:45.909Z,100.00
2023-01-03T22:39:12.619Z,100.00
2023-01-03T22:41:39.362Z,100.00
2023-01-03T22:44:06.162Z,100.00
2023-01-03T22:46:32.979Z,100.00
2023-01-03T22:48:59.819Z,100.00
2023-01-03T22:51:26.632Z,100.00
2023-01-03T22:53:53.406Z,100.00
2023-01-03T22:56:20.149Z,100.00
2023-01-03T22:58:46.968Z,100.00
2023-01-03T23:01:18.718Z,100.00
2023-01-03T23:03:47.190Z,100.00
2023-01-03T23:06:17.497Z,100.00
2023-01-03T23:08:45.496Z,100.00
2023-01-03T23:11:34.547Z,100.00
2023-01-03T23:14:05.857Z,100.00
2023-01-03T23:16:32.866Z,100.00
2023-01-03T23:19:02.491Z,100.00
2023-01-03T23:21:30.191Z,100.00
2023-01-03T23:23:56.932Z,100.00
2023-01-03T23:26:24.223Z,100.00
2023-01-03T23:28:58.312Z,100.00
2023-01-03T23:31:28.929Z,100.00
2023-01-03T23:33:56.718Z,100.00
2023-01-03T23:36:23.809Z,100.00
2023-01-03T23:38:50.992Z,100.00
2023-01-03T23:41:18.298Z,100.00
2023-01-03T23:43:45.328Z,100.00
2023-01-03T23:46:16.269Z,100.00
2023-01-03T23:48:43.154Z,100.00
2023-01-03T23:51:10.502Z,100.00
2023-01-03T23:53:39.343Z,100.00
2023-01-03T23:56:09.261Z,100.00
2023-01-03T23:58:36.074Z,100.00
